Time;durP1;ratioP1;P1;durP2;ratioP2;P2;SDS_P1;SDS_P2;PMS_P1;PMS_P2;Temp;Humidity;BMP_temperature;BMP_pressure;BME280_temperature;BME280_humidity;BME280_pressure;Samples;Min_cycle;Max_cycle;Signal;HPM_P1;HPM_P2
2023/08/24 00:00:48;;;;;;;8.57;7.00;;;19.60;1.00;;;;;;5028026;28;20875;-77
2023/08/24 00:03:17;;;;;;;10.10;6.83;;;19.50;1.00;;;;;;5023115;28;20492;-77
2023/08/24 00:05:44;;;;;;;7.90;6.67;;;19.50;1.00;;;;;;5026526;28;20485;-76
2023/08/24 00:08:12;;;;;;;7.40;6.67;;;19.40;1.00;;;;;;5028691;28;21910;-79
2023/08/24 00:10:39;;;;;;;7.20;6.60;;;19.40;1.00;;;;;;5027909;28;20605;-75
2023/08/24 00:13:07;;;;;;;7.77;7.07;;;19.30;1.00;;;;;;5025093;28;20975;-75
2023/08/24 00:15:35;;;;;;;8.17;7.47;;;19.30;1.00;;;;;;5028650;28;21039;-77
2023/08/24 00:18:04;;;;;;;8.37;7.63;;;19.20;1.00;;;;;;5028279;28;20488;-77
2023/08/24 00:20:32;;;;;;;7.47;6.77;;;19.20;1.00;;;;;;5027270;28;20556;-76
2023/08/24 00:22:59;;;;;;;7.20;6.50;;;19.10;1.00;;;;;;5023805;28;20999;-76
2023/08/24 00:25:26;;;;;;;7.80;7.10;;;19.10;1.00;;;;;;5027601;28;20472;-78
2023/08/24 00:27:53;;;;;;;7.70;7.00;;;19.10;1.00;;;;;;5029037;28;20551;-76
2023/08/24 00:30:20;;;;;;;7.70;7.10;;;19.10;1.00;;;;;;5024497;28;20467;-76
2023/08/24 00:32:47;;;;;;;7.53;6.80;;;19.10;1.00;;;;;;5028764;28;20468;-76
2023/08/24 00:35:16;;;;;;;7.93;7.23;;;19.10;1.00;;;;;;5022053;28;20836;-75
2023/08/24 00:37:47;;;;;;;8.00;6.67;;;19.00;1.00;;;;;;5009959;28;20472;-77
2023/08/24 00:40:15;;;;;;;8.70;7.90;;;19.00;1.00;;;;;;5025757;28;20532;-76
2023/08/24 00:42:48;;;;;;;7.33;6.40;;;19.00;1.00;;;;;;5030269;28;20882;-77
2023/08/24 00:45:15;;;;;;;7.17;6.47;;;18.90;1.00;;;;;;5029483;28;20982;-79
2023/08/24 00:47:45;;;;;;;8.60;7.80;;;18.90;1.00;;;;;;5027197;28;20524;-77
2023/08/24 00:50:13;;;;;;;8.30;7.50;;;18.90;1.00;;;;;;5030377;28;20535;-77
2023/08/24 00:52:43;;;;;;;7.80;7.20;;;18.90;1.00;;;;;;5029970;28;20903;-77
2023/08/24 00:55:11;;;;;;;8.23;7.43;;;19.00;1.00;;;;;;5029656;28;20482;-77
2023/08/24 00:57:40;;;;;;;8.20;7.40;;;18.90;1.00;;;;;;5026049;28;20518;-76
2023/08/24 01:00:13;;;;;;;8.40;7.70;;;18.90;1.00;;;;;;5029923;28;20985;-76
2023/08/24 01:05:22;;;;;;;7.97;7.27;;;18.90;1.00;;;;;;5023126;28;21654;-74
2023/08/24 01:07:51;;;;;;;8.20;7.40;;;18.90;1.00;;;;;;5024636;28;20472;-74
2023/08/24 01:10:18;;;;;;;7.93;7.23;;;18.90;1.00;;;;;;5028886;28;20459;-74
2023/08/24 01:12:57;;;;;;;7.57;6.93;;;18.80;1.00;;;;;;5023813;28;20479;-74
2023/08/24 01:15:30;;;;;;;7.93;6.43;;;18.70;1.00;;;;;;5026455;28;20474;-74
2023/08/24 01:18:06;;;;;;;7.90;7.07;;;18.70;1.00;;;;;;5027019;28;20531;-74
2023/08/24 01:20:37;;;;;;;8.60;7.40;;;18.60;1.00;;;;;;5025613;28;20524;-74
2023/08/24 01:23:15;;;;;;;7.20;6.60;;;18.60;1.00;;;;;;5027143;28;20883;-74
2023/08/24 01:25:52;;;;;;;11.17;7.17;;;18.60;1.00;;;;;;5024675;28;20471;-74
2023/08/24 01:28:21;;;;;;;7.60;6.80;;;18.50;1.00;;;;;;5026104;28;20455;-74
2023/08/24 01:30:48;;;;;;;7.23;6.63;;;18.50;1.00;;;;;;5024256;28;21003;-73
2023/08/24 01:33:15;;;;;;;7.50;6.80;;;18.50;1.00;;;;;;5025288;28;20495;-74
2023/08/24 01:35:42;;;;;;;8.00;7.23;;;18.50;1.00;;;;;;5023595;28;20474;-75
2023/08/24 01:38:12;;;;;;;7.57;6.97;;;18.50;1.00;;;;;;5026923;28;20906;-74
2023/08/24 01:40:48;;;;;;;9.07;8.27;;;18.50;1.00;;;;;;5020572;28;20475;-74
2023/08/24 01:43:16;;;;;;;10.20;9.20;;;18.50;1.00;;;;;;5024565;28;20552;-75
2023/08/24 01:45:45;;;;;;;9.07;8.17;;;18.60;1.00;;;;;;5024786;28;20492;-75
2023/08/24 01:48:14;;;;;;;10.00;9.13;;;18.60;1.00;;;;;;5023216;28;20893;-74
2023/08/24 01:50:42;;;;;;;8.97;8.13;;;18.60;1.00;;;;;;5021456;28;20564;-75
2023/08/24 01:53:10;;;;;;;9.20;8.30;;;18.70;1.00;;;;;;5023819;28;20563;-74
2023/08/24 01:55:37;;;;;;;12.00;10.40;;;18.70;1.00;;;;;;5022864;28;20473;-74
2023/08/24 01:58:04;;;;;;;9.53;8.07;;;18.80;1.00;;;;;;5026061;28;20516;-74
2023/08/24 02:00:31;;;;;;;9.83;8.83;;;18.80;1.00;;;;;;5022350;28;20475;-76
2023/08/24 02:02:59;;;;;;;8.90;8.00;;;18.90;1.00;;;;;;5022990;28;20489;-74
2023/08/24 02:05:27;;;;;;;10.17;8.40;;;18.90;1.00;;;;;;5022599;28;20584;-74
2023/08/24 02:07:54;;;;;;;9.33;8.53;;;19.00;1.00;;;;;;5022945;28;20549;-74
2023/08/24 02:10:21;;;;;;;9.33;8.53;;;19.00;1.00;;;;;;5024687;28;20491;-74
2023/08/24 02:12:48;;;;;;;9.50;8.60;;;18.90;1.00;;;;;;5021493;28;20839;-74
2023/08/24 02:15:15;;;;;;;9.30;8.47;;;18.90;1.00;;;;;;5020820;28;20543;-75
2023/08/24 02:17:42;;;;;;;8.20;7.50;;;18.90;1.00;;;;;;5024415;28;20456;-74
2023/08/24 02:20:12;;;;;;;9.90;8.97;;;18.90;1.00;;;;;;5024366;28;20534;-74
2023/08/24 02:22:39;;;;;;;10.43;8.93;;;19.00;1.00;;;;;;5023120;28;20553;-74
2023/08/24 02:25:07;;;;;;;8.97;8.17;;;19.10;1.00;;;;;;5024920;28;20473;-74
2023/08/24 02:27:34;;;;;;;10.00;9.10;;;19.10;1.00;;;;;;5023325;28;20464;-75
2023/08/24 02:30:01;;;;;;;9.57;8.67;;;19.20;1.00;;;;;;5022627;28;20489;-74
2023/08/24 02:32:28;;;;;;;9.27;8.47;;;19.20;1.00;;;;;;5025886;28;20472;-73
2023/08/24 02:34:55;;;;;;;9.93;9.03;;;19.30;1.00;;;;;;5023487;28;20545;-74
2023/08/24 02:37:23;;;;;;;8.93;8.13;;;19.30;1.00;;;;;;5024379;28;20504;-74
2023/08/24 02:39:50;;;;;;;9.77;8.87;;;19.40;1.00;;;;;;5025199;28;20549;-73
2023/08/24 02:42:17;;;;;;;9.20;8.40;;;19.30;1.00;;;;;;5024190;28;20532;-75
2023/08/24 02:44:44;;;;;;;10.00;9.20;;;19.40;1.00;;;;;;5023388;28;20534;-75
2023/08/24 02:47:11;;;;;;;9.80;9.00;;;19.40;1.00;;;;;;5023420;28;20514;-74
2023/08/24 02:49:38;;;;;;;10.40;9.37;;;19.50;1.00;;;;;;5024312;28;21000;-74
2023/08/24 02:52:05;;;;;;;10.03;9.23;;;19.50;1.00;;;;;;5024429;28;20508;-75
2023/08/24 02:54:35;;;;;;;10.30;9.30;;;19.40;1.00;;;;;;5023294;28;20499;-74
2023/08/24 02:57:02;;;;;;;9.83;8.80;;;19.40;1.00;;;;;;5021923;28;20447;-75
2023/08/24 02:59:29;;;;;;;11.20;9.10;;;19.50;1.00;;;;;;5025766;28;20546;-74
2023/08/24 03:01:56;;;;;;;10.53;9.57;;;19.40;1.00;;;;;;5021946;28;20449;-76
2023/08/24 03:04:23;;;;;;;10.33;9.37;;;19.40;1.00;;;;;;5023426;28;20501;-74
2023/08/24 03:06:50;;;;;;;9.50;8.60;;;19.40;1.00;;;;;;5025615;28;20473;-74
2023/08/24 03:09:17;;;;;;;14.37;9.87;;;19.40;1.00;;;;;;5025984;28;20470;-74
2023/08/24 03:11:45;;;;;;;10.17;9.17;;;19.50;1.00;;;;;;5027716;28;20475;-74
2023/08/24 03:14:12;;;;;;;9.60;8.67;;;19.40;1.00;;;;;;5026485;28;20539;-74
2023/08/24 03:16:39;;;;;;;10.77;9.70;;;19.40;1.00;;;;;;5023277;28;20454;-74
2023/08/24 03:19:07;;;;;;;8.90;8.20;;;19.40;1.00;;;;;;5024073;28;20545;-75
2023/08/24 03:21:34;;;;;;;8.70;8.10;;;19.50;1.00;;;;;;5021426;28;20468;-74
2023/08/24 03:24:01;;;;;;;17.90;9.03;;;19.50;1.00;;;;;;5024105;28;20483;-74
2023/08/24 03:26:27;;;;;;;9.60;8.80;;;19.40;1.00;;;;;;5021686;28;20989;-74
2023/08/24 03:28:56;;;;;;;14.63;9.77;;;19.50;1.00;;;;;;5022211;28;20468;-74
2023/08/24 03:31:23;;;;;;;9.60;8.60;;;19.50;1.00;;;;;;5021115;28;20476;-74
2023/08/24 03:33:50;;;;;;;9.40;8.60;;;19.50;1.00;;;;;;5021752;28;20468;-74
2023/08/24 03:36:17;;;;;;;8.63;7.77;;;19.60;1.00;;;;;;5024636;28;20929;-74
2023/08/24 03:38:44;;;;;;;8.27;7.67;;;19.60;1.00;;;;;;5026728;28;20580;-73
2023/08/24 03:41:10;;;;;;;7.90;7.20;;;19.60;1.00;;;;;;5023804;28;20926;-74
2023/08/24 03:43:38;;;;;;;8.97;8.07;;;19.70;1.00;;;;;;5024957;28;20522;-74
2023/08/24 03:46:06;;;;;;;19.00;8.83;;;19.70;1.00;;;;;;5026173;28;20497;-74
2023/08/24 03:48:34;;;;;;;13.63;8.07;;;19.70;1.00;;;;;;5024789;28;20544;-75
2023/08/24 03:51:02;;;;;;;12.30;8.27;;;19.60;1.00;;;;;;5025242;28;20983;-74
2023/08/24 03:53:28;;;;;;;9.17;8.27;;;19.60;1.00;;;;;;5025499;28;20540;-74
2023/08/24 03:55:56;;;;;;;9.50;8.50;;;19.50;1.00;;;;;;5024455;28;20550;-73
2023/08/24 03:58:23;;;;;;;9.17;8.30;;;19.60;1.00;;;;;;5025090;28;20503;-73
2023/08/24 04:00:50;;;;;;;8.03;7.33;;;19.60;1.00;;;;;;5025581;28;20503;-73
2023/08/24 04:03:19;;;;;;;11.60;8.70;;;19.60;1.00;;;;;;5022058;28;20548;-73
2023/08/24 04:05:45;;;;;;;10.40;8.43;;;19.50;1.00;;;;;;5023704;28;20465;-74
2023/08/24 04:08:12;;;;;;;8.70;7.80;;;19.60;1.00;;;;;;5027357;28;20472;-74
2023/08/24 04:10:40;;;;;;;8.90;8.10;;;19.50;1.00;;;;;;5025200;28;20504;-75
2023/08/24 04:13:06;;;;;;;8.20;7.40;;;19.50;1.00;;;;;;5024721;28;20491;-74
2023/08/24 04:15:32;;;;;;;7.67;6.97;;;19.60;1.00;;;;;;5024593;28;20482;-74
2023/08/24 04:17:59;;;;;;;8.07;7.43;;;19.70;1.00;;;;;;5023239;28;20468;-74
2023/08/24 04:20:28;;;;;;;8.63;7.93;;;19.70;1.00;;;;;;5023288;28;20462;-74
2023/08/24 04:22:56;;;;;;;8.80;8.00;;;19.80;1.00;;;;;;5022985;28;20470;-73
2023/08/24 04:25:23;;;;;;;11.23;8.90;;;19.80;1.00;;;;;;5022817;28;20576;-74
2023/08/24 04:27:50;;;;;;;12.40;10.30;;;19.90;1.00;;;;;;5024921;28;20550;-74
2023/08/24 04:30:17;;;;;;;12.73;11.20;;;19.90;1.00;;;;;;5022303;28;20817;-74
2023/08/24 04:32:44;;;;;;;15.03;11.70;;;20.00;1.00;;;;;;5025532;28;20557;-74
2023/08/24 04:35:11;;;;;;;13.83;12.50;;;19.90;1.00;;;;;;5024926;28;20457;-75
2023/08/24 04:37:39;;;;;;;13.40;12.10;;;19.90;1.00;;;;;;5028598;28;20469;-74
2023/08/24 04:40:08;;;;;;;14.90;11.77;;;19.90;1.00;;;;;;5023540;28;21195;-74
2023/08/24 04:42:35;;;;;;;15.43;10.93;;;19.90;1.00;;;;;;5026932;28;20506;-73
2023/08/24 04:45:02;;;;;;;11.70;9.07;;;19.90;1.00;;;;;;5028222;28;20511;-75
2023/08/24 04:47:29;;;;;;;8.80;8.00;;;19.90;1.00;;;;;;5027263;28;20469;-74
2023/08/24 04:49:56;;;;;;;8.20;7.43;;;20.00;1.00;;;;;;5025332;28;20466;-74
2023/08/24 04:52:24;;;;;;;11.47;8.93;;;20.00;1.00;;;;;;5028011;28;20609;-74
2023/08/24 04:54:52;;;;;;;11.10;8.23;;;20.00;1.00;;;;;;5029117;28;20461;-74
2023/08/24 04:57:19;;;;;;;8.53;7.50;;;20.00;1.00;;;;;;5027571;28;20519;-74
2023/08/24 04:59:46;;;;;;;11.23;7.20;;;20.00;1.00;;;;;;5025305;28;20486;-74
2023/08/24 05:02:13;;;;;;;7.20;6.20;;;19.90;1.00;;;;;;5029283;28;20558;-74
2023/08/24 05:04:40;;;;;;;6.77;6.17;;;19.90;1.00;;;;;;5028717;28;20520;-72
2023/08/24 05:07:07;;;;;;;7.97;7.30;;;19.90;1.00;;;;;;5028476;28;20553;-72
2023/08/24 05:09:34;;;;;;;7.47;6.80;;;19.90;1.00;;;;;;5024988;28;20564;-72
2023/08/24 05:12:03;;;;;;;6.77;6.27;;;19.90;1.00;;;;;;5029795;28;20470;-71
2023/08/24 05:14:30;;;;;;;7.13;6.13;;;20.00;1.00;;;;;;5023958;28;20496;-73
2023/08/24 05:16:57;;;;;;;6.30;5.80;;;20.10;1.00;;;;;;5032315;28;20454;-71
2023/08/24 05:19:24;;;;;;;6.17;5.60;;;20.20;1.00;;;;;;5025262;28;20550;-74
2023/08/24 05:21:50;;;;;;;7.30;6.70;;;20.20;1.00;;;;;;5024586;28;20465;-71
2023/08/24 05:24:17;;;;;;;7.07;6.47;;;20.30;1.00;;;;;;5024133;28;20476;-71
2023/08/24 05:26:44;;;;;;;6.67;6.07;;;20.40;1.00;;;;;;5028132;28;20640;-71
2023/08/24 05:29:12;;;;;;;7.10;6.40;;;20.40;1.00;;;;;;5028524;28;20479;-72
2023/08/24 05:31:39;;;;;;;6.20;5.70;;;20.40;1.00;;;;;;5029517;28;20494;-71
2023/08/24 05:34:06;;;;;;;7.53;7.03;;;20.40;1.00;;;;;;5029668;28;20544;-72
2023/08/24 05:36:33;;;;;;;10.87;8.43;;;20.40;1.00;;;;;;5030978;28;20855;-72
2023/08/24 05:39:00;;;;;;;8.00;7.13;;;20.40;1.00;;;;;;5026285;28;21048;-72
2023/08/24 05:41:27;;;;;;;7.10;6.40;;;20.50;1.00;;;;;;5025996;28;20918;-72
2023/08/24 05:43:54;;;;;;;6.97;6.37;;;20.50;1.00;;;;;;5024108;28;20597;-72
2023/08/24 05:46:23;;;;;;;6.97;6.10;;;20.60;1.00;;;;;;5028411;28;20474;-71
2023/08/24 05:48:49;;;;;;;7.47;6.20;;;20.60;1.00;;;;;;5024727;28;20461;-71
2023/08/24 05:51:16;;;;;;;6.70;6.10;;;20.70;1.00;;;;;;5027731;28;20485;-72
2023/08/24 05:53:44;;;;;;;6.10;5.50;;;20.80;1.00;;;;;;5027606;28;20666;-71
2023/08/24 05:56:10;;;;;;;6.80;6.10;;;20.80;1.00;;;;;;5029158;28;20469;-71
2023/08/24 05:58:37;;;;;;;7.47;6.30;;;20.80;1.00;;;;;;5026601;28;20504;-72
2023/08/24 06:01:04;;;;;;;9.23;5.70;;;20.90;1.00;;;;;;5026601;28;21077;-72
2023/08/24 06:03:32;;;;;;;6.10;5.30;;;21.10;1.00;;;;;;5025565;28;20547;-72
2023/08/24 06:06:04;;;;;;;8.40;6.47;;;21.10;1.00;;;;;;5026272;28;20491;-73
2023/08/24 06:08:31;;;;;;;5.70;5.10;;;21.10;1.00;;;;;;5026689;28;20471;-72
2023/08/24 06:10:58;;;;;;;6.37;5.30;;;21.20;1.00;;;;;;5027091;28;20479;-73
2023/08/24 06:13:25;;;;;;;8.17;5.10;;;21.20;1.00;;;;;;5027630;28;20927;-71
2023/08/24 06:15:52;;;;;;;6.03;5.23;;;21.30;1.00;;;;;;5024944;28;20542;-72
2023/08/24 06:18:21;;;;;;;7.30;5.37;;;21.40;1.00;;;;;;5027105;28;20472;-72
2023/08/24 06:20:49;;;;;;;5.33;4.50;;;21.50;1.00;;;;;;5028008;28;20548;-72
2023/08/24 06:23:17;;;;;;;5.70;5.20;;;21.50;1.00;;;;;;5025815;28;20495;-72
2023/08/24 06:25:44;;;;;;;6.33;5.60;;;21.60;1.00;;;;;;5025476;28;20470;-70
2023/08/24 06:28:11;;;;;;;7.40;4.97;;;21.70;1.00;;;;;;5026731;28;20484;-72
2023/08/24 06:30:39;;;;;;;10.60;4.53;;;21.90;1.00;;;;;;5025616;28;20580;-72
2023/08/24 06:33:07;;;;;;;5.10;4.20;;;21.90;1.00;;;;;;5022121;28;20456;-74
2023/08/24 06:35:34;;;;;;;12.90;5.27;;;22.00;1.00;;;;;;5028183;28;20488;-72
2023/08/24 06:38:04;;;;;;;4.70;4.30;;;22.10;1.00;;;;;;5024977;28;20530;-71
2023/08/24 06:40:31;;;;;;;6.77;5.00;;;22.10;1.00;;;;;;5026803;28;20931;-73
2023/08/24 06:42:58;;;;;;;6.83;4.13;;;22.10;1.00;;;;;;5027578;28;20903;-71
2023/08/24 06:45:25;;;;;;;7.87;4.97;;;22.20;1.00;;;;;;5030685;28;20561;-71
2023/08/24 06:47:52;;;;;;;6.80;4.17;;;22.20;1.00;;;;;;5029298;28;20492;-72
2023/08/24 06:50:20;;;;;;;12.50;5.37;;;22.40;1.00;;;;;;5026106;28;20514;-72
2023/08/24 06:52:47;;;;;;;5.93;4.37;;;22.50;1.00;;;;;;5025910;28;21854;-72
2023/08/24 06:55:16;;;;;;;18.47;13.50;;;22.50;1.00;;;;;;5029740;28;20446;-73
2023/08/24 06:57:48;;;;;;;5.43;4.83;;;22.60;1.00;;;;;;5025516;28;20513;-71
2023/08/24 07:00:16;;;;;;;7.50;4.83;;;22.70;1.00;;;;;;5024759;28;20544;-73
2023/08/24 07:02:42;;;;;;;6.90;4.30;;;22.80;1.00;;;;;;5029339;28;20472;-74
2023/08/24 07:05:12;;;;;;;7.47;5.27;;;22.90;1.00;;;;;;5027801;28;20575;-73
2023/08/24 07:07:39;;;;;;;7.27;4.70;;;22.90;1.00;;;;;;5025935;28;20455;-72
2023/08/24 07:10:07;;;;;;;5.77;4.20;;;23.10;1.00;;;;;;5025377;28;20474;-71
2023/08/24 07:12:35;;;;;;;4.73;4.23;;;23.10;1.00;;;;;;5025375;28;20454;-73
2023/08/24 07:15:02;;;;;;;4.50;4.10;;;23.20;1.00;;;;;;5026264;28;20970;-73
2023/08/24 07:17:29;;;;;;;8.07;3.90;;;23.30;1.00;;;;;;5026073;28;20558;-72
2023/08/24 07:19:56;;;;;;;5.13;3.70;;;23.40;1.00;;;;;;5027900;28;20549;-72
2023/08/24 07:22:23;;;;;;;4.33;3.83;;;23.40;1.00;;;;;;5024678;28;20618;-72
2023/08/24 07:24:52;;;;;;;4.13;3.70;;;23.50;1.00;;;;;;5024624;28;20534;-72
2023/08/24 07:27:19;;;;;;;6.10;4.57;;;23.50;1.00;;;;;;5026929;28;20554;-73
2023/08/24 07:29:47;;;;;;;5.70;3.53;;;23.50;1.00;;;;;;5027187;28;20538;-75
2023/08/24 07:32:14;;;;;;;11.53;7.63;;;23.60;1.00;;;;;;5024648;28;20480;-72
2023/08/24 07:34:41;;;;;;;7.30;5.20;;;23.80;1.00;;;;;;5048386;28;20435;-73
2023/08/24 07:37:08;;;;;;;5.43;5.03;;;24.00;1.00;;;;;;5026260;28;20436;-72
2023/08/24 07:39:35;;;;;;;6.83;6.23;;;24.10;1.00;;;;;;5025253;28;20477;-71
2023/08/24 07:42:02;;;;;;;5.00;4.70;;;24.20;1.00;;;;;;5026057;28;20498;-71
2023/08/24 07:44:30;;;;;;;6.80;4.53;;;24.30;1.00;;;;;;5025694;28;20473;-72
2023/08/24 07:46:58;;;;;;;5.03;4.57;;;24.30;1.00;;;;;;5026376;28;20509;-72
2023/08/24 07:49:25;;;;;;;4.93;4.43;;;24.40;1.00;;;;;;5027917;28;20485;-73
2023/08/24 07:51:52;;;;;;;4.60;4.20;;;24.60;1.00;;;;;;5025331;28;20500;-71
2023/08/24 07:54:20;;;;;;;5.80;5.20;;;24.80;1.00;;;;;;5024931;28;20465;-72
2023/08/24 07:56:47;;;;;;;11.50;5.73;;;25.10;1.00;;;;;;5026164;28;20552;-73
2023/08/24 07:59:14;;;;;;;5.67;5.17;;;25.30;1.00;;;;;;5027466;28;20507;-73
2023/08/24 08:01:40;;;;;;;6.63;5.10;;;25.50;1.00;;;;;;5025621;28;20499;-73
2023/08/24 08:04:09;;;;;;;5.23;4.77;;;25.50;1.00;;;;;;5022842;28;21958;-71
2023/08/24 08:06:36;;;;;;;8.73;3.93;;;25.70;1.00;;;;;;5044458;28;20488;-72
2023/08/24 08:09:03;;;;;;;4.93;4.43;;;25.80;1.00;;;;;;5028249;28;20511;-71
2023/08/24 08:11:31;;;;;;;4.47;4.00;;;26.00;1.00;;;;;;5029443;28;20451;-73
2023/08/24 08:13:58;;;;;;;4.73;4.33;;;26.20;1.00;;;;;;5027521;28;20460;-75
2023/08/24 08:16:25;;;;;;;4.10;3.80;;;26.30;1.00;;;;;;5026881;28;20452;-72
2023/08/24 08:18:53;;;;;;;4.47;4.07;;;26.50;1.00;;;;;;5028643;28;20549;-72
2023/08/24 08:21:23;;;;;;;7.13;4.60;;;26.60;1.00;;;;;;5028315;28;20526;-72
2023/08/24 08:23:50;;;;;;;4.57;4.10;;;26.60;1.00;;;;;;5030248;28;20547;-71
2023/08/24 08:26:17;;;;;;;6.03;4.30;;;26.70;1.00;;;;;;5030930;28;20431;-73
2023/08/24 08:28:44;;;;;;;4.40;3.83;;;26.90;1.00;;;;;;5029463;28;20472;-73
2023/08/24 08:31:11;;;;;;;4.80;4.00;;;27.20;1.00;;;;;;5028383;28;20487;-73
2023/08/24 08:33:38;;;;;;;9.20;4.67;;;27.40;1.00;;;;;;5031234;28;20486;-73
2023/08/24 08:36:05;;;;;;;5.07;4.67;;;27.80;1.00;;;;;;5027882;28;20570;-73
2023/08/24 08:38:33;;;;;;;4.30;3.90;;;27.90;1.00;;;;;;5030093;28;20493;-73
2023/08/24 08:41:04;;;;;;;4.57;4.00;;;27.90;1.00;;;;;;5028686;28;20545;-74
2023/08/24 08:43:31;;;;;;;5.00;3.93;;;27.70;1.00;;;;;;5028473;28;20921;-73
2023/08/24 08:46:00;;;;;;;4.60;4.30;;;27.40;1.00;;;;;;5027914;28;20551;-72
2023/08/24 08:48:28;;;;;;;4.40;3.80;;;27.20;1.00;;;;;;5029448;28;20608;-72
2023/08/24 08:50:59;;;;;;;9.17;7.07;;;27.20;1.00;;;;;;5028369;28;20475;-74
2023/08/24 08:53:26;;;;;;;4.10;3.53;;;27.10;1.00;;;;;;5029633;28;20547;-73
2023/08/24 08:55:57;;;;;;;4.50;4.10;;;27.10;1.00;;;;;;5026294;28;20964;-71
2023/08/24 08:58:25;;;;;;;6.33;5.40;;;27.10;1.00;;;;;;5029281;28;20611;-73
2023/08/24 09:00:53;;;;;;;4.27;2.90;;;27.00;1.00;;;;;;5027910;28;20544;-71
2023/08/24 09:03:20;;;;;;;4.27;3.27;;;26.90;1.00;;;;;;5026274;28;20468;-72
2023/08/24 09:05:48;;;;;;;5.93;3.70;;;26.90;1.00;;;;;;5026805;28;20444;-72
2023/08/24 09:08:17;;;;;;;5.40;3.70;;;26.90;1.00;;;;;;5051708;28;20466;-72
2023/08/24 09:10:45;;;;;;;6.60;3.20;;;26.90;1.00;;;;;;5033409;28;20491;-72
2023/08/24 09:13:13;;;;;;;3.67;3.37;;;26.80;1.00;;;;;;5026360;28;20944;-73
2023/08/24 09:15:40;;;;;;;5.67;3.10;;;26.80;1.00;;;;;;5027643;28;20468;-73
2023/08/24 09:18:07;;;;;;;5.57;3.20;;;26.80;1.00;;;;;;5027799;28;20481;-71
2023/08/24 09:20:35;;;;;;;5.00;3.63;;;26.80;1.00;;;;;;5025758;28;20507;-72
2023/08/24 09:23:02;;;;;;;4.43;3.47;;;27.20;1.00;;;;;;5025490;28;21056;-72
2023/08/24 09:25:29;;;;;;;4.97;3.23;;;27.70;1.00;;;;;;5028367;28;20467;-73
2023/08/24 09:27:59;;;;;;;4.37;3.97;;;28.20;1.00;;;;;;5024261;28;20521;-71
2023/08/24 09:30:32;;;;;;;4.57;4.17;;;28.20;1.00;;;;;;5028181;28;20490;-71
2023/08/24 09:33:03;;;;;;;6.73;4.30;;;28.20;1.00;;;;;;5024506;28;20585;-73
2023/08/24 09:35:36;;;;;;;3.03;2.73;;;28.10;1.00;;;;;;5027466;28;20472;-73
2023/08/24 09:38:17;;;;;;;3.23;2.93;;;28.30;1.00;;;;;;5025268;28;20469;-72
2023/08/24 09:40:47;;;;;;;3.40;3.10;;;29.60;1.00;;;;;;5026835;28;20524;-72
2023/08/24 09:43:14;;;;;;;6.40;3.57;;;31.70;1.00;;;;;;5026957;28;20470;-72
2023/08/24 09:45:49;;;;;;;10.87;3.30;;;33.20;1.00;;;;;;5028818;28;20560;-73
2023/08/24 09:48:16;;;;;;;6.53;3.73;;;34.70;1.00;;;;;;5029253;28;20472;-72
2023/08/24 09:50:45;;;;;;;4.00;2.30;;;35.10;1.00;;;;;;5028724;28;20474;-72
2023/08/24 09:53:16;;;;;;;2.40;2.20;;;34.70;1.00;;;;;;5026780;28;21069;-72
2023/08/24 09:55:48;;;;;;;6.30;2.70;;;34.90;1.00;;;;;;5026679;28;20513;-72
2023/08/24 09:58:16;;;;;;;3.00;2.70;;;35.50;1.00;;;;;;5023002;28;20489;-72
2023/08/24 10:00:46;;;;;;;3.80;2.90;;;36.50;1.00;;;;;;5026668;28;20491;-71
2023/08/24 10:03:18;;;;;;;5.80;4.10;;;37.10;1.00;;;;;;5025374;28;20469;-73
2023/08/24 10:05:46;;;;;;;3.90;2.80;;;37.50;1.00;;;;;;5029673;28;20465;-71
2023/08/24 10:08:16;;;;;;;5.50;3.47;;;37.10;1.00;;;;;;5028006;28;20864;-72
2023/08/24 10:10:44;;;;;;;3.70;2.17;;;37.30;1.00;;;;;;5023658;28;20461;-73
2023/08/24 10:13:26;;;;;;;4.43;3.00;;;37.80;1.00;;;;;;5028301;28;20466;-73
2023/08/24 10:15:55;;;;;;;5.37;3.40;;;38.20;1.00;;;;;;5025175;28;20526;-75
2023/08/24 10:18:26;;;;;;;3.07;2.50;;;38.50;1.00;;;;;;5024580;28;20513;-74
2023/08/24 10:20:54;;;;;;;3.00;2.53;;;38.90;1.00;;;;;;5024536;28;20450;-74
2023/08/24 10:23:22;;;;;;;3.63;3.07;;;39.10;1.00;;;;;;5023650;28;20543;-73
2023/08/24 10:25:52;;;;;;;3.93;2.13;;;39.40;1.00;;;;;;5027391;28;21473;-73
2023/08/24 10:28:21;;;;;;;2.67;2.43;;;39.60;1.00;;;;;;5023114;28;20505;-73
2023/08/24 10:30:49;;;;;;;2.50;2.30;;;39.20;1.00;;;;;;5023306;28;20449;-72
2023/08/24 10:33:17;;;;;;;3.00;2.60;;;39.20;1.00;;;;;;5025987;28;20489;-73
2023/08/24 10:35:46;;;;;;;3.63;2.90;;;39.20;1.00;;;;;;5024228;28;20448;-74
2023/08/24 10:38:25;;;;;;;4.47;2.53;;;39.20;1.00;;;;;;5026730;28;20982;-73
2023/08/24 10:40:52;;;;;;;2.57;2.37;;;39.20;1.00;;;;;;5027151;28;20445;-73
2023/08/24 10:43:19;;;;;;;4.40;4.00;;;39.10;1.00;;;;;;5028718;28;20547;-73
2023/08/24 10:45:57;;;;;;;5.47;2.70;;;39.50;1.00;;;;;;5024627;28;20965;-73
2023/08/24 10:48:25;;;;;;;2.60;2.40;;;39.70;1.00;;;;;;5026160;28;20469;-73
2023/08/24 10:51:22;;;;;;;4.30;2.50;;;39.10;1.00;;;;;;5026506;28;21222;-73
2023/08/24 10:53:54;;;;;;;3.97;3.03;;;39.10;1.00;;;;;;5026468;28;20446;-73
2023/08/24 10:56:21;;;;;;;4.27;2.43;;;38.70;1.00;;;;;;5026182;28;20461;-73
2023/08/24 10:59:09;;;;;;;2.90;2.40;;;38.90;1.00;;;;;;5025636;28;20970;-73
2023/08/24 11:01:40;;;;;;;3.40;2.70;;;39.60;1.00;;;;;;5026507;28;21015;-73
2023/08/24 11:04:07;;;;;;;3.80;3.03;;;40.60;1.00;;;;;;5026556;28;20489;-72
2023/08/24 11:06:51;;;;;;;5.17;2.60;;;41.10;1.00;;;;;;5023019;28;20469;-72
2023/08/24 11:09:18;;;;;;;5.13;3.10;;;41.30;1.00;;;;;;5024447;28;20477;-73
2023/08/24 11:11:57;;;;;;;5.10;3.03;;;41.60;1.00;;;;;;5025819;28;20965;-73
2023/08/24 11:14:26;;;;;;;4.33;3.37;;;41.70;1.00;;;;;;5026008;28;20469;-72
2023/08/24 11:16:54;;;;;;;4.20;3.50;;;40.60;1.00;;;;;;5026372;28;20476;-73
2023/08/24 11:19:21;;;;;;;4.13;2.67;;;41.30;1.00;;;;;;5023197;28;21420;-72
2023/08/24 11:21:49;;;;;;;3.33;3.03;;;42.00;1.00;;;;;;5023154;28;20476;-75
2023/08/24 11:24:17;;;;;;;2.60;2.40;;;41.70;1.00;;;;;;5026420;28;20489;-74
2023/08/24 11:26:46;;;;;;;3.60;2.90;;;41.80;1.00;;;;;;5022210;28;20468;-74
2023/08/24 11:29:13;;;;;;;3.87;3.10;;;42.10;1.00;;;;;;5025676;28;20477;-73
2023/08/24 11:31:40;;;;;;;4.30;3.00;;;42.70;1.00;;;;;;5026001;28;20791;-73
2023/08/24 11:34:08;;;;;;;5.47;3.27;;;43.00;1.00;;;;;;5028456;28;20560;-71
2023/08/24 11:36:43;;;;;;;3.70;2.93;;;43.20;1.00;;;;;;5023103;28;20481;-72
2023/08/24 11:39:17;;;;;;;5.40;2.97;;;42.60;1.00;;;;;;5022732;28;20480;-72
2023/08/24 11:41:45;;;;;;;4.97;3.73;;;42.10;1.00;;;;;;5025394;28;20956;-72
2023/08/24 11:44:12;;;;;;;4.13;3.33;;;41.80;1.00;;;;;;5024247;28;20557;-73
2023/08/24 11:46:40;;;;;;;6.83;3.53;;;41.80;1.00;;;;;;5024537;28;20458;-73
2023/08/24 11:49:08;;;;;;;3.60;3.07;;;42.10;1.00;;;;;;5026536;28;20552;-73
2023/08/24 11:51:37;;;;;;;4.70;3.60;;;42.20;1.00;;;;;;5021511;28;20454;-73
2023/08/24 11:54:05;;;;;;;3.73;3.43;;;42.70;1.00;;;;;;5023572;28;20549;-73
2023/08/24 11:56:33;;;;;;;3.53;3.23;;;43.30;1.00;;;;;;5022506;28;20979;-73
2023/08/24 11:59:00;;;;;;;3.90;3.60;;;43.70;1.00;;;;;;5025572;28;20473;-73
2023/08/24 12:01:28;;;;;;;4.13;2.53;;;44.10;1.00;;;;;;5023186;28;20493;-74
2023/08/24 12:03:55;;;;;;;7.77;3.90;;;44.30;1.00;;;;;;5025038;28;20918;-73
2023/08/24 12:06:22;;;;;;;3.63;2.90;;;43.80;1.00;;;;;;5022310;28;20459;-74
2023/08/24 12:08:50;;;;;;;4.60;3.67;;;43.70;1.00;;;;;;5026217;28;20556;-73
2023/08/24 12:11:19;;;;;;;4.40;3.87;;;43.80;1.00;;;;;;5020466;28;20458;-73
2023/08/24 12:13:49;;;;;;;4.27;3.33;;;44.30;1.00;;;;;;5021742;28;20481;-74
2023/08/24 12:16:17;;;;;;;3.83;3.13;;;44.30;1.00;;;;;;5022554;28;20897;-74
2023/08/24 12:18:53;;;;;;;3.43;3.10;;;43.50;1.00;;;;;;5023900;28;20468;-73
2023/08/24 12:21:20;;;;;;;5.17;4.07;;;42.20;1.00;;;;;;5024923;28;20461;-72
2023/08/24 12:23:59;;;;;;;3.60;3.27;;;42.00;1.00;;;;;;5027101;28;20984;-73
2023/08/24 12:26:27;;;;;;;4.43;3.53;;;42.50;1.00;;;;;;5023745;28;20473;-73
2023/08/24 12:29:00;;;;;;;3.43;3.03;;;42.80;1.00;;;;;;5024660;28;20429;-73
2023/08/24 12:31:28;;;;;;;4.77;3.37;;;42.60;1.00;;;;;;5021841;28;20984;-74
2023/08/24 12:34:05;;;;;;;5.27;3.47;;;42.10;1.00;;;;;;5022038;28;20615;-74
2023/08/24 12:36:35;;;;;;;3.73;3.43;;;42.10;1.00;;;;;;5023541;28;20620;-73
2023/08/24 12:39:03;;;;;;;3.70;3.40;;;41.30;1.00;;;;;;5023985;28;20528;-73
2023/08/24 12:41:30;;;;;;;3.70;3.40;;;41.50;1.00;;;;;;5024530;28;20551;-75
2023/08/24 12:43:59;;;;;;;3.80;2.60;;;41.90;1.00;;;;;;5024019;28;20539;-73
2023/08/24 12:46:27;;;;;;;3.40;3.17;;;42.40;1.00;;;;;;5022608;28;20994;-74
2023/08/24 12:48:54;;;;;;;3.30;3.10;;;42.90;1.00;;;;;;5022935;28;21020;-73
2023/08/24 12:51:21;;;;;;;5.37;3.97;;;43.20;1.00;;;;;;5021973;28;20575;-72
2023/08/24 12:53:48;;;;;;;3.60;3.33;;;43.80;1.00;;;;;;5023600;28;20530;-72
2023/08/24 12:56:15;;;;;;;3.93;3.63;;;43.90;1.00;;;;;;5025677;28;20588;-73
2023/08/24 12:58:42;;;;;;;4.70;3.30;;;43.50;1.00;;;;;;5027374;28;20580;-73
2023/08/24 13:01:13;;;;;;;4.10;2.90;;;43.70;1.00;;;;;;5024297;28;20456;-73
2023/08/24 13:03:40;;;;;;;3.73;3.43;;;42.90;1.00;;;;;;5024050;28;20453;-73